sensor_id;sensor_type;location;lat;lon;timestamp;P1;durP1;ratioP1;P2;durP2;ratioP2
45368;SDS011;51342;55.250;37.668;2023-11-18T00:01:48;4.23;;;1.70;;
45368;SDS011;51342;55.250;37.668;2023-11-18T00:04:20;3.13;;;1.60;;
45368;SDS011;51342;55.250;37.668;2023-11-18T00:06:51;3.57;;;1.50;;
45368;SDS011;51342;55.250;37.668;2023-11-18T00:09:25;6.83;;;2.03;;
45368;SDS011;51342;55.250;37.668;2023-11-18T00:11:56;4.57;;;2.20;;
45368;SDS011;51342;55.250;37.668;2023-11-18T00:14:28;5.97;;;2.00;;
45368;SDS011;51342;55.250;37.668;2023-11-18T00:16:59;4.97;;;1.63;;
45368;SDS011;51342;55.250;37.668;2023-11-18T00:19:30;4.30;;;1.97;;
45368;SDS011;51342;55.250;37.668;2023-11-18T00:22:02;4.63;;;2.13;;
45368;SDS011;51342;55.250;37.668;2023-11-18T00:24:34;4.10;;;2.10;;
45368;SDS011;51342;55.250;37.668;2023-11-18T00:27:05;3.87;;;2.00;;
45368;SDS011;51342;55.250;37.668;2023-11-18T00:29:37;4.73;;;2.17;;
45368;SDS011;51342;55.250;37.668;2023-11-18T00:32:08;4.57;;;2.43;;
45368;SDS011;51342;55.250;37.668;2023-11-18T00:34:40;4.33;;;2.33;;
45368;SDS011;51342;55.250;37.668;2023-11-18T00:37:11;4.93;;;2.60;;
45368;SDS011;51342;55.250;37.668;2023-11-18T00:39:43;5.00;;;2.70;;
45368;SDS011;51342;55.250;37.668;2023-11-18T00:42:14;4.10;;;2.23;;
45368;SDS011;51342;55.250;37.668;2023-11-18T00:44:46;6.97;;;2.80;;
45368;SDS011;51342;55.250;37.668;2023-11-18T00:47:18;6.03;;;2.77;;
45368;SDS011;51342;55.250;37.668;2023-11-18T00:49:50;4.63;;;2.40;;
45368;SDS011;51342;55.250;37.668;2023-11-18T00:52:23;4.40;;;2.17;;
45368;SDS011;51342;55.250;37.668;2023-11-18T00:54:55;6.83;;;2.00;;
45368;SDS011;51342;55.250;37.668;2023-11-18T00:57:26;4.27;;;2.03;;
45368;SDS011;51342;55.250;37.668;2023-11-18T00:59:58;4.20;;;2.20;;
45368;SDS011;51342;55.250;37.668;2023-11-18T01:02:29;4.97;;;2.33;;
45368;SDS011;51342;55.250;37.668;2023-11-18T01:05:01;5.63;;;2.07;;
45368;SDS011;51342;55.250;37.668;2023-11-18T01:07:32;4.47;;;2.10;;
45368;SDS011;51342;55.250;37.668;2023-11-18T01:10:04;3.10;;;1.67;;
45368;SDS011;51342;55.250;37.668;2023-11-18T01:12:37;7.30;;;2.60;;
45368;SDS011;51342;55.250;37.668;2023-11-18T01:15:08;6.13;;;2.37;;
45368;SDS011;51342;55.250;37.668;2023-11-18T01:17:41;6.77;;;2.47;;
45368;SDS011;51342;55.250;37.668;2023-11-18T01:20:12;5.50;;;2.70;;
45368;SDS011;51342;55.250;37.668;2023-11-18T01:22:44;5.70;;;2.53;;
45368;SDS011;51342;55.250;37.668;2023-11-18T01:25:17;4.03;;;2.57;;
45368;SDS011;51342;55.250;37.668;2023-11-18T01:27:49;5.17;;;2.13;;
45368;SDS011;51342;55.250;37.668;2023-11-18T01:30:21;6.97;;;2.40;;
45368;SDS011;51342;55.250;37.668;2023-11-18T01:32:54;5.67;;;2.60;;
45368;SDS011;51342;55.250;37.668;2023-11-18T01:35:26;5.50;;;2.67;;
45368;SDS011;51342;55.250;37.668;2023-11-18T01:37:58;5.17;;;2.57;;
45368;SDS011;51342;55.250;37.668;2023-11-18T01:40:29;7.07;;;2.60;;
45368;SDS011;51342;55.250;37.668;2023-11-18T01:43:02;6.73;;;2.30;;
45368;SDS011;51342;55.250;37.668;2023-11-18T01:45:35;4.77;;;2.30;;
45368;SDS011;51342;55.250;37.668;2023-11-18T01:48:07;6.40;;;2.30;;
45368;SDS011;51342;55.250;37.668;2023-11-18T01:50:41;4.50;;;2.10;;
45368;SDS011;51342;55.250;37.668;2023-11-18T01:53:15;6.63;;;2.43;;
45368;SDS011;51342;55.250;37.668;2023-11-18T01:55:47;6.97;;;2.97;;
45368;SDS011;51342;55.250;37.668;2023-11-18T01:58:19;3.40;;;2.03;;
45368;SDS011;51342;55.250;37.668;2023-11-18T02:00:54;6.87;;;2.60;;
45368;SDS011;51342;55.250;37.668;2023-11-18T02:03:26;5.23;;;2.30;;
45368;SDS011;51342;55.250;37.668;2023-11-18T02:05:59;5.90;;;2.53;;
45368;SDS011;51342;55.250;37.668;2023-11-18T02:08:30;6.37;;;2.50;;
45368;SDS011;51342;55.250;37.668;2023-11-18T02:13:43;6.38;;;2.58;;
45368;SDS011;51342;55.250;37.668;2023-11-18T02:16:21;5.07;;;2.27;;
45368;SDS011;51342;55.250;37.668;2023-11-18T02:18:53;4.70;;;2.37;;
45368;SDS011;51342;55.250;37.668;2023-11-18T02:21:26;7.27;;;2.60;;
45368;SDS011;51342;55.250;37.668;2023-11-18T02:23:59;4.50;;;2.17;;
45368;SDS011;51342;55.250;37.668;2023-11-18T02:26:31;5.27;;;2.40;;
45368;SDS011;51342;55.250;37.668;2023-11-18T02:29:02;5.30;;;2.30;;
45368;SDS011;51342;55.250;37.668;2023-11-18T02:31:35;5.90;;;1.87;;
45368;SDS011;51342;55.250;37.668;2023-11-18T02:34:12;4.43;;;1.97;;
45368;SDS011;51342;55.250;37.668;2023-11-18T02:36:48;5.27;;;2.53;;
45368;SDS011;51342;55.250;37.668;2023-11-18T02:39:21;7.47;;;2.80;;
45368;SDS011;51342;55.250;37.668;2023-11-18T02:41:56;4.37;;;2.20;;
45368;SDS011;51342;55.250;37.668;2023-11-18T02:44:29;4.40;;;2.10;;
45368;SDS011;51342;55.250;37.668;2023-11-18T02:47:03;7.13;;;2.17;;
45368;SDS011;51342;55.250;37.668;2023-11-18T02:49:38;5.67;;;2.67;;
45368;SDS011;51342;55.250;37.668;2023-11-18T02:52:10;4.10;;;2.43;;
45368;SDS011;51342;55.250;37.668;2023-11-18T02:54:41;6.33;;;2.20;;
45368;SDS011;51342;55.250;37.668;2023-11-18T02:57:13;3.27;;;2.03;;
45368;SDS011;51342;55.250;37.668;2023-11-18T02:59:44;4.80;;;2.37;;
45368;SDS011;51342;55.250;37.668;2023-11-18T03:02:17;4.83;;;2.30;;
45368;SDS011;51342;55.250;37.668;2023-11-18T03:04:51;4.23;;;2.00;;
45368;SDS011;51342;55.250;37.668;2023-11-18T03:07:23;6.40;;;2.60;;
45368;SDS011;51342;55.250;37.668;2023-11-18T03:09:55;4.63;;;2.40;;
45368;SDS011;51342;55.250;37.668;2023-11-18T03:12:28;7.23;;;2.60;;
45368;SDS011;51342;55.250;37.668;2023-11-18T03:14:59;6.43;;;2.60;;
45368;SDS011;51342;55.250;37.668;2023-11-18T03:17:31;3.60;;;2.03;;
45368;SDS011;51342;55.250;37.668;2023-11-18T03:20:03;5.70;;;2.17;;
45368;SDS011;51342;55.250;37.668;2023-11-18T03:22:39;5.73;;;2.30;;
45368;SDS011;51342;55.250;37.668;2023-11-18T03:25:14;6.10;;;2.77;;
45368;SDS011;51342;55.250;37.668;2023-11-18T03:27:46;6.23;;;2.90;;
45368;SDS011;51342;55.250;37.668;2023-11-18T03:30:17;7.40;;;2.50;;
45368;SDS011;51342;55.250;37.668;2023-11-18T03:32:49;5.67;;;2.40;;
45368;SDS011;51342;55.250;37.668;2023-11-18T03:35:20;6.93;;;2.70;;
45368;SDS011;51342;55.250;37.668;2023-11-18T03:37:52;6.73;;;2.53;;
45368;SDS011;51342;55.250;37.668;2023-11-18T03:40:23;4.60;;;2.47;;
45368;SDS011;51342;55.250;37.668;2023-11-18T03:42:55;6.23;;;2.47;;
45368;SDS011;51342;55.250;37.668;2023-11-18T03:45:29;5.53;;;2.70;;
45368;SDS011;51342;55.250;37.668;2023-11-18T03:48:01;4.13;;;2.73;;
45368;SDS011;51342;55.250;37.668;2023-11-18T03:50:33;5.17;;;2.63;;
45368;SDS011;51342;55.250;37.668;2023-11-18T03:53:05;5.93;;;2.87;;
45368;SDS011;51342;55.250;37.668;2023-11-18T03:55:37;5.13;;;2.80;;
45368;SDS011;51342;55.250;37.668;2023-11-18T03:58:08;6.80;;;2.77;;
45368;SDS011;51342;55.250;37.668;2023-11-18T04:00:39;6.57;;;2.30;;
45368;SDS011;51342;55.250;37.668;2023-11-18T04:03:12;7.20;;;2.60;;
45368;SDS011;51342;55.250;37.668;2023-11-18T04:05:43;7.43;;;2.83;;
45368;SDS011;51342;55.250;37.668;2023-11-18T04:08:15;9.93;;;3.00;;
45368;SDS011;51342;55.250;37.668;2023-11-18T04:10:46;7.50;;;3.07;;
45368;SDS011;51342;55.250;37.668;2023-11-18T04:13:17;9.30;;;3.93;;
45368;SDS011;51342;55.250;37.668;2023-11-18T04:15:49;8.57;;;3.50;;
45368;SDS011;51342;55.250;37.668;2023-11-18T04:18:20;7.87;;;3.30;;
45368;SDS011;51342;55.250;37.668;2023-11-18T04:20:52;5.93;;;2.77;;
45368;SDS011;51342;55.250;37.668;2023-11-18T04:23:23;7.13;;;3.40;;
45368;SDS011;51342;55.250;37.668;2023-11-18T04:25:55;9.87;;;3.67;;
45368;SDS011;51342;55.250;37.668;2023-11-18T04:28:28;5.80;;;3.07;;
45368;SDS011;51342;55.250;37.668;2023-11-18T04:31:00;7.50;;;3.23;;
45368;SDS011;51342;55.250;37.668;2023-11-18T04:33:32;6.00;;;2.97;;
45368;SDS011;51342;55.250;37.668;2023-11-18T04:36:04;6.97;;;3.00;;
45368;SDS011;51342;55.250;37.668;2023-11-18T04:38:36;3.87;;;2.33;;
45368;SDS011;51342;55.250;37.668;2023-11-18T04:41:07;5.40;;;2.53;;
45368;SDS011;51342;55.250;37.668;2023-11-18T04:43:39;5.63;;;2.80;;
45368;SDS011;51342;55.250;37.668;2023-11-18T04:46:12;5.93;;;3.00;;
45368;SDS011;51342;55.250;37.668;2023-11-18T04:48:45;5.77;;;2.80;;
45368;SDS011;51342;55.250;37.668;2023-11-18T04:51:17;7.63;;;2.83;;
45368;SDS011;51342;55.250;37.668;2023-11-18T04:53:48;4.60;;;2.50;;
45368;SDS011;51342;55.250;37.668;2023-11-18T04:56:20;5.97;;;3.37;;
45368;SDS011;51342;55.250;37.668;2023-11-18T04:58:52;8.17;;;2.80;;
45368;SDS011;51342;55.250;37.668;2023-11-18T05:01:24;7.03;;;3.07;;
45368;SDS011;51342;55.250;37.668;2023-11-18T05:03:56;6.57;;;2.87;;
45368;SDS011;51342;55.250;37.668;2023-11-18T05:06:28;7.37;;;4.00;;
45368;SDS011;51342;55.250;37.668;2023-11-18T05:08:59;9.03;;;3.77;;
45368;SDS011;51342;55.250;37.668;2023-11-18T05:11:31;8.80;;;4.20;;
45368;SDS011;51342;55.250;37.668;2023-11-18T05:14:02;11.73;;;3.80;;
45368;SDS011;51342;55.250;37.668;2023-11-18T05:16:37;8.40;;;3.90;;
45368;SDS011;51342;55.250;37.668;2023-11-18T05:19:10;9.03;;;4.33;;
45368;SDS011;51342;55.250;37.668;2023-11-18T05:21:41;9.80;;;3.97;;
45368;SDS011;51342;55.250;37.668;2023-11-18T05:24:13;10.90;;;4.70;;
45368;SDS011;51342;55.250;37.668;2023-11-18T05:26:45;12.93;;;3.93;;
45368;SDS011;51342;55.250;37.668;2023-11-18T05:29:17;8.60;;;4.33;;
45368;SDS011;51342;55.250;37.668;2023-11-18T05:31:48;9.20;;;4.40;;
45368;SDS011;51342;55.250;37.668;2023-11-18T05:34:20;9.17;;;4.00;;
45368;SDS011;51342;55.250;37.668;2023-11-18T05:36:52;10.47;;;4.43;;
45368;SDS011;51342;55.250;37.668;2023-11-18T05:39:25;7.13;;;3.83;;
45368;SDS011;51342;55.250;37.668;2023-11-18T05:41:58;10.27;;;4.00;;
45368;SDS011;51342;55.250;37.668;2023-11-18T05:44:30;9.87;;;4.00;;
45368;SDS011;51342;55.250;37.668;2023-11-18T05:47:02;9.27;;;4.53;;
45368;SDS011;51342;55.250;37.668;2023-11-18T05:49:33;7.83;;;3.70;;
45368;SDS011;51342;55.250;37.668;2023-11-18T05:52:05;9.90;;;4.23;;
45368;SDS011;51342;55.250;37.668;2023-11-18T05:54:37;8.60;;;3.67;;
45368;SDS011;51342;55.250;37.668;2023-11-18T05:57:09;11.47;;;4.13;;
45368;SDS011;51342;55.250;37.668;2023-11-18T05:59:40;10.37;;;4.13;;
45368;SDS011;51342;55.250;37.668;2023-11-18T06:02:12;8.93;;;4.57;;
45368;SDS011;51342;55.250;37.668;2023-11-18T06:04:48;9.35;;;4.50;;
45368;SDS011;51342;55.250;37.668;2023-11-18T06:07:20;8.97;;;4.77;;
45368;SDS011;51342;55.250;37.668;2023-11-18T06:09:51;14.30;;;4.80;;
45368;SDS011;51342;55.250;37.668;2023-11-18T06:12:23;12.53;;;5.27;;
45368;SDS011;51342;55.250;37.668;2023-11-18T06:14:54;9.73;;;5.40;;
45368;SDS011;51342;55.250;37.668;2023-11-18T06:17:26;12.70;;;6.47;;
45368;SDS011;51342;55.250;37.668;2023-11-18T06:19:58;12.80;;;5.67;;
45368;SDS011;51342;55.250;37.668;2023-11-18T06:22:30;14.33;;;6.23;;
45368;SDS011;51342;55.250;37.668;2023-11-18T06:25:01;19.43;;;7.10;;
45368;SDS011;51342;55.250;37.668;2023-11-18T06:27:33;12.63;;;5.07;;
45368;SDS011;51342;55.250;37.668;2023-11-18T06:30:05;13.37;;;6.27;;
45368;SDS011;51342;55.250;37.668;2023-11-18T06:32:37;9.67;;;4.60;;
45368;SDS011;51342;55.250;37.668;2023-11-18T06:35:09;11.33;;;4.90;;
45368;SDS011;51342;55.250;37.668;2023-11-18T06:37:42;13.43;;;6.30;;
45368;SDS011;51342;55.250;37.668;2023-11-18T06:40:13;15.40;;;7.27;;
45368;SDS011;51342;55.250;37.668;2023-11-18T06:42:49;13.47;;;6.70;;
45368;SDS011;51342;55.250;37.668;2023-11-18T06:45:21;13.60;;;6.43;;
45368;SDS011;51342;55.250;37.668;2023-11-18T06:47:53;13.47;;;6.50;;
45368;SDS011;51342;55.250;37.668;2023-11-18T06:50:24;15.40;;;7.57;;
45368;SDS011;51342;55.250;37.668;2023-11-18T06:52:57;13.77;;;6.73;;
45368;SDS011;51342;55.250;37.668;2023-11-18T06:55:29;14.17;;;6.93;;
45368;SDS011;51342;55.250;37.668;2023-11-18T06:58:01;15.73;;;6.60;;
45368;SDS011;51342;55.250;37.668;2023-11-18T07:00:33;12.93;;;7.50;;
45368;SDS011;51342;55.250;37.668;2023-11-18T07:03:04;13.40;;;6.23;;
45368;SDS011;51342;55.250;37.668;2023-11-18T07:05:36;14.33;;;6.03;;
45368;SDS011;51342;55.250;37.668;2023-11-18T07:08:08;9.77;;;5.90;;
45368;SDS011;51342;55.250;37.668;2023-11-18T07:10:40;10.43;;;5.40;;
45368;SDS011;51342;55.250;37.668;2023-11-18T07:13:11;12.63;;;5.80;;
45368;SDS011;51342;55.250;37.668;2023-11-18T07:15:43;12.27;;;5.87;;
45368;SDS011;51342;55.250;37.668;2023-11-18T07:18:15;9.17;;;5.07;;
45368;SDS011;51342;55.250;37.668;2023-11-18T07:20:47;13.77;;;5.23;;
45368;SDS011;51342;55.250;37.668;2023-11-18T07:23:20;7.57;;;4.43;;
45368;SDS011;51342;55.250;37.668;2023-11-18T07:25:51;9.47;;;4.10;;
45368;SDS011;51342;55.250;37.668;2023-11-18T07:28:23;9.43;;;4.63;;
45368;SDS011;51342;55.250;37.668;2023-11-18T07:30:54;9.23;;;3.90;;
45368;SDS011;51342;55.250;37.668;2023-11-18T07:33:26;7.50;;;3.63;;
45368;SDS011;51342;55.250;37.668;2023-11-18T07:35:57;6.97;;;3.63;;
45368;SDS011;51342;55.250;37.668;2023-11-18T07:38:29;6.63;;;3.33;;
45368;SDS011;51342;55.250;37.668;2023-11-18T07:41:02;5.57;;;3.40;;
45368;SDS011;51342;55.250;37.668;2023-11-18T07:43:34;7.80;;;3.47;;
45368;SDS011;51342;55.250;37.668;2023-11-18T07:46:11;11.50;;;5.00;;
45368;SDS011;51342;55.250;37.668;2023-11-18T07:48:44;7.23;;;3.57;;
45368;SDS011;51342;55.250;37.668;2023-11-18T07:51:17;7.47;;;3.23;;
45368;SDS011;51342;55.250;37.668;2023-11-18T07:53:49;10.10;;;3.93;;
45368;SDS011;51342;55.250;37.668;2023-11-18T07:56:21;9.70;;;3.53;;
45368;SDS011;51342;55.250;37.668;2023-11-18T07:58:55;12.47;;;3.90;;
45368;SDS011;51342;55.250;37.668;2023-11-18T08:01:26;7.03;;;3.80;;
45368;SDS011;51342;55.250;37.668;2023-11-18T08:03:58;7.43;;;3.77;;
45368;SDS011;51342;55.250;37.668;2023-11-18T08:06:29;8.30;;;3.90;;
45368;SDS011;51342;55.250;37.668;2023-11-18T08:09:03;9.57;;;3.53;;
45368;SDS011;51342;55.250;37.668;2023-11-18T08:11:35;6.13;;;3.67;;
45368;SDS011;51342;55.250;37.668;2023-11-18T08:14:09;7.87;;;3.70;;
45368;SDS011;51342;55.250;37.668;2023-11-18T08:16:41;8.57;;;4.13;;
45368;SDS011;51342;55.250;37.668;2023-11-18T08:19:12;7.17;;;3.90;;
45368;SDS011;51342;55.250;37.668;2023-11-18T08:21:43;8.57;;;3.30;;
45368;SDS011;51342;55.250;37.668;2023-11-18T08:24:15;6.93;;;3.07;;
45368;SDS011;51342;55.250;37.668;2023-11-18T08:26:46;6.60;;;3.60;;
45368;SDS011;51342;55.250;37.668;2023-11-18T08:29:18;10.80;;;4.63;;
45368;SDS011;51342;55.250;37.668;2023-11-18T08:31:50;8.70;;;3.43;;
45368;SDS011;51342;55.250;37.668;2023-11-18T08:34:21;9.00;;;3.50;;
45368;SDS011;51342;55.250;37.668;2023-11-18T08:36:53;7.40;;;3.63;;
45368;SDS011;51342;55.250;37.668;2023-11-18T08:39:24;10.97;;;3.70;;
45368;SDS011;51342;55.250;37.668;2023-11-18T08:41:56;9.03;;;4.70;;
45368;SDS011;51342;55.250;37.668;2023-11-18T08:44:28;7.07;;;4.03;;
45368;SDS011;51342;55.250;37.668;2023-11-18T08:46:59;9.63;;;3.57;;
45368;SDS011;51342;55.250;37.668;2023-11-18T08:49:32;13.50;;;7.70;;
45368;SDS011;51342;55.250;37.668;2023-11-18T08:52:04;8.07;;;3.80;;
45368;SDS011;51342;55.250;37.668;2023-11-18T08:54:40;9.13;;;3.87;;
45368;SDS011;51342;55.250;37.668;2023-11-18T08:57:32;5.63;;;3.57;;
45368;SDS011;51342;55.250;37.668;2023-11-18T09:00:19;5.65;;;3.38;;
45368;SDS011;51342;55.250;37.668;2023-11-18T09:03:11;9.47;;;2.93;;
45368;SDS011;51342;55.250;37.668;2023-11-18T09:05:56;4.80;;;2.73;;
45368;SDS011;51342;55.250;37.668;2023-11-18T09:08:35;8.50;;;2.90;;
45368;SDS011;51342;55.250;37.668;2023-11-18T09:11:09;6.93;;;3.07;;
45368;SDS011;51342;55.250;37.668;2023-11-18T09:13:46;4.23;;;2.07;;
45368;SDS011;51342;55.250;37.668;2023-11-18T09:16:20;5.33;;;2.97;;
45368;SDS011;51342;55.250;37.668;2023-11-18T09:18:53;5.53;;;2.53;;
45368;SDS011;51342;55.250;37.668;2023-11-18T09:21:24;4.77;;;2.50;;
45368;SDS011;51342;55.250;37.668;2023-11-18T09:24:00;6.87;;;3.10;;
45368;SDS011;51342;55.250;37.668;2023-11-18T09:26:33;6.43;;;2.60;;
45368;SDS011;51342;55.250;37.668;2023-11-18T09:29:06;6.93;;;2.53;;
45368;SDS011;51342;55.250;37.668;2023-11-18T09:31:39;4.20;;;2.80;;
45368;SDS011;51342;55.250;37.668;2023-11-18T09:34:12;4.30;;;2.53;;
45368;SDS011;51342;55.250;37.668;2023-11-18T09:36:46;6.97;;;2.40;;
45368;SDS011;51342;55.250;37.668;2023-11-18T09:39:19;6.23;;;3.30;;
45368;SDS011;51342;55.250;37.668;2023-11-18T09:42:00;5.37;;;2.63;;
45368;SDS011;51342;55.250;37.668;2023-11-18T09:44:34;4.87;;;2.83;;
45368;SDS011;51342;55.250;37.668;2023-11-18T09:47:08;6.37;;;2.87;;
45368;SDS011;51342;55.250;37.668;2023-11-18T09:49:47;6.37;;;2.43;;
45368;SDS011;51342;55.250;37.668;2023-11-18T09:55:21;6.30;;;2.23;;
45368;SDS011;51342;55.250;37.668;2023-11-18T09:58:09;6.30;;;3.77;;
45368;SDS011;51342;55.250;37.668;2023-11-18T10:00:46;6.47;;;2.53;;
45368;SDS011;51342;55.250;37.668;2023-11-18T10:03:21;5.63;;;3.10;;
45368;SDS011;51342;55.250;37.668;2023-11-18T10:05:53;5.70;;;2.80;;
45368;SDS011;51342;55.250;37.668;2023-11-18T10:08:27;4.90;;;2.63;;
45368;SDS011;51342;55.250;37.668;2023-11-18T10:11:01;6.47;;;3.00;;
45368;SDS011;51342;55.250;37.668;2023-11-18T10:13:40;7.90;;;3.17;;
45368;SDS011;51342;55.250;37.668;2023-11-18T10:16:15;6.43;;;3.10;;
45368;SDS011;51342;55.250;37.668;2023-11-18T10:18:46;5.93;;;2.80;;
45368;SDS011;51342;55.250;37.668;2023-11-18T10:21:20;6.83;;;2.63;;
45368;SDS011;51342;55.250;37.668;2023-11-18T10:24:10;7.40;;;2.97;;
45368;SDS011;51342;55.250;37.668;2023-11-18T10:26:55;3.93;;;2.23;;
45368;SDS011;51342;55.250;37.668;2023-11-18T10:29:31;5.13;;;2.70;;
45368;SDS011;51342;55.250;37.668;2023-11-18T10:32:06;4.70;;;2.80;;
45368;SDS011;51342;55.250;37.668;2023-11-18T10:34:47;5.87;;;2.43;;
45368;SDS011;51342;55.250;37.668;2023-11-18T10:37:21;4.50;;;2.53;;
45368;SDS011;51342;55.250;37.668;2023-11-18T10:39:53;4.77;;;2.60;;
45368;SDS011;51342;55.250;37.668;2023-11-18T10:42:25;3.97;;;1.80;;
45368;SDS011;51342;55.250;37.668;2023-11-18T10:45:01;5.70;;;2.43;;
45368;SDS011;51342;55.250;37.668;2023-11-18T10:47:34;5.10;;;2.10;;
45368;SDS011;51342;55.250;37.668;2023-11-18T10:50:12;5.50;;;2.50;;
45368;SDS011;51342;55.250;37.668;2023-11-18T10:52:45;6.37;;;3.20;;
45368;SDS011;51342;55.250;37.668;2023-11-18T10:55:17;3.90;;;2.40;;
45368;SDS011;51342;55.250;37.668;2023-11-18T10:57:50;4.83;;;2.60;;
45368;SDS011;51342;55.250;37.668;2023-11-18T11:00:21;7.97;;;3.73;;
45368;SDS011;51342;55.250;37.668;2023-11-18T11:02:57;8.80;;;5.97;;
45368;SDS011;51342;55.250;37.668;2023-11-18T11:05:29;10.83;;;5.70;;
45368;SDS011;51342;55.250;37.668;2023-11-18T11:08:06;4.45;;;2.50;;
45368;SDS011;51342;55.250;37.668;2023-11-18T11:10:40;6.00;;;2.90;;
45368;SDS011;51342;55.250;37.668;2023-11-18T11:13:14;9.27;;;5.20;;
45368;SDS011;51342;55.250;37.668;2023-11-18T11:15:48;7.90;;;4.87;;
45368;SDS011;51342;55.250;37.668;2023-11-18T11:18:23;9.07;;;5.23;;
45368;SDS011;51342;55.250;37.668;2023-11-18T11:21:01;8.33;;;4.00;;
45368;SDS011;51342;55.250;37.668;2023-11-18T11:29:32;6.20;;;2.90;;
45368;SDS011;51342;55.250;37.668;2023-11-18T11:32:15;6.50;;;2.57;;
45368;SDS011;51342;55.250;37.668;2023-11-18T11:34:55;6.37;;;3.10;;
45368;SDS011;51342;55.250;37.668;2023-11-18T11:37:36;5.07;;;2.90;;
45368;SDS011;51342;55.250;37.668;2023-11-18T11:40:09;8.50;;;5.00;;
45368;SDS011;51342;55.250;37.668;2023-11-18T11:42:42;10.63;;;3.47;;
45368;SDS011;51342;55.250;37.668;2023-11-18T11:45:14;7.00;;;3.40;;
45368;SDS011;51342;55.250;37.668;2023-11-18T11:47:50;8.97;;;3.47;;
45368;SDS011;51342;55.250;37.668;2023-11-18T11:50:29;5.53;;;3.20;;
45368;SDS011;51342;55.250;37.668;2023-11-18T11:53:05;9.33;;;5.53;;
45368;SDS011;51342;55.250;37.668;2023-11-18T11:55:49;13.13;;;7.27;;
45368;SDS011;51342;55.250;37.668;2023-11-18T11:58:29;16.00;;;9.50;;
45368;SDS011;51342;55.250;37.668;2023-11-18T12:04:08;12.47;;;6.00;;
45368;SDS011;51342;55.250;37.668;2023-11-18T12:06:52;14.40;;;6.60;;
45368;SDS011;51342;55.250;37.668;2023-11-18T12:09:30;10.30;;;5.60;;
45368;SDS011;51342;55.250;37.668;2023-11-18T12:12:18;6.57;;;3.90;;
45368;SDS011;51342;55.250;37.668;2023-11-18T12:20:40;8.27;;;4.50;;
45368;SDS011;51342;55.250;37.668;2023-11-18T12:23:17;8.87;;;3.83;;
45368;SDS011;51342;55.250;37.668;2023-11-18T12:25:50;9.60;;;4.70;;
45368;SDS011;51342;55.250;37.668;2023-11-18T12:28:25;8.63;;;3.57;;
45368;SDS011;51342;55.250;37.668;2023-11-18T12:30:57;5.97;;;3.47;;
45368;SDS011;51342;55.250;37.668;2023-11-18T12:34:18;6.03;;;3.10;;
45368;SDS011;51342;55.250;37.668;2023-11-18T12:43:01;5.43;;;3.53;;
45368;SDS011;51342;55.250;37.668;2023-11-18T12:45:43;6.57;;;3.00;;
45368;SDS011;51342;55.250;37.668;2023-11-18T12:48:36;8.33;;;4.00;;
45368;SDS011;51342;55.250;37.668;2023-11-18T12:51:13;8.40;;;4.25;;
45368;SDS011;51342;55.250;37.668;2023-11-18T12:53:50;11.45;;;5.25;;
45368;SDS011;51342;55.250;37.668;2023-11-18T12:56:24;10.03;;;6.17;;
45368;SDS011;51342;55.250;37.668;2023-11-18T12:58:57;11.87;;;5.27;;
45368;SDS011;51342;55.250;37.668;2023-11-18T13:01:28;13.50;;;7.93;;
45368;SDS011;51342;55.250;37.668;2023-11-18T13:04:01;10.57;;;6.30;;
45368;SDS011;51342;55.250;37.668;2023-11-18T13:06:34;10.70;;;5.43;;
45368;SDS011;51342;55.250;37.668;2023-11-18T13:09:06;11.10;;;5.63;;
45368;SDS011;51342;55.250;37.668;2023-11-18T13:11:40;9.10;;;5.47;;
45368;SDS011;51342;55.250;37.668;2023-11-18T13:14:13;9.80;;;5.03;;
45368;SDS011;51342;55.250;37.668;2023-11-18T13:16:45;12.33;;;6.07;;
45368;SDS011;51342;55.250;37.668;2023-11-18T13:19:27;11.77;;;5.87;;
45368;SDS011;51342;55.250;37.668;2023-11-18T13:22:03;9.73;;;4.83;;
45368;SDS011;51342;55.250;37.668;2023-11-18T13:24:40;9.97;;;4.90;;
45368;SDS011;51342;55.250;37.668;2023-11-18T13:27:16;8.93;;;4.53;;
45368;SDS011;51342;55.250;37.668;2023-11-18T13:29:50;7.67;;;4.37;;
45368;SDS011;51342;55.250;37.668;2023-11-18T13:32:23;10.03;;;4.40;;
45368;SDS011;51342;55.250;37.668;2023-11-18T13:34:57;9.50;;;5.37;;
45368;SDS011;51342;55.250;37.668;2023-11-18T13:37:32;9.40;;;4.73;;
45368;SDS011;51342;55.250;37.668;2023-11-18T13:40:04;11.33;;;4.50;;
45368;SDS011;51342;55.250;37.668;2023-11-18T13:42:36;12.50;;;5.23;;
45368;SDS011;51342;55.250;37.668;2023-11-18T13:45:11;10.40;;;4.87;;
45368;SDS011;51342;55.250;37.668;2023-11-18T13:47:50;9.57;;;5.50;;
45368;SDS011;51342;55.250;37.668;2023-11-18T13:50:23;20.00;;;11.38;;
45368;SDS011;51342;55.250;37.668;2023-11-18T13:52:56;23.80;;;11.80;;
45368;SDS011;51342;55.250;37.668;2023-11-18T13:55:28;28.43;;;14.17;;
45368;SDS011;51342;55.250;37.668;2023-11-18T13:58:02;22.23;;;11.50;;
45368;SDS011;51342;55.250;37.668;2023-11-18T14:00:36;23.63;;;10.13;;
45368;SDS011;51342;55.250;37.668;2023-11-18T14:03:07;17.10;;;9.87;;
45368;SDS011;51342;55.250;37.668;2023-11-18T14:05:42;16.83;;;9.20;;
45368;SDS011;51342;55.250;37.668;2023-11-18T14:08:17;15.47;;;8.30;;
45368;SDS011;51342;55.250;37.668;2023-11-18T14:10:50;11.03;;;6.20;;
45368;SDS011;51342;55.250;37.668;2023-11-18T14:13:22;13.53;;;5.73;;
45368;SDS011;51342;55.250;37.668;2023-11-18T14:15:54;13.53;;;6.00;;
45368;SDS011;51342;55.250;37.668;2023-11-18T14:18:28;9.23;;;5.10;;
45368;SDS011;51342;55.250;37.668;2023-11-18T14:20:59;10.27;;;5.27;;
45368;SDS011;51342;55.250;37.668;2023-11-18T14:23:31;9.27;;;4.93;;
45368;SDS011;51342;55.250;37.668;2023-11-18T14:26:03;9.97;;;4.87;;
45368;SDS011;51342;55.250;37.668;2023-11-18T14:28:35;8.50;;;4.77;;
45368;SDS011;51342;55.250;37.668;2023-11-18T14:31:07;10.83;;;4.90;;
45368;SDS011;51342;55.250;37.668;2023-11-18T14:33:40;15.13;;;6.20;;
45368;SDS011;51342;55.250;37.668;2023-11-18T14:36:13;9.67;;;5.10;;
45368;SDS011;51342;55.250;37.668;2023-11-18T14:38:45;8.47;;;5.00;;
45368;SDS011;51342;55.250;37.668;2023-11-18T14:41:18;9.13;;;4.37;;
45368;SDS011;51342;55.250;37.668;2023-11-18T14:43:51;11.73;;;5.07;;
45368;SDS011;51342;55.250;37.668;2023-11-18T14:46:23;12.33;;;5.50;;
45368;SDS011;51342;55.250;37.668;2023-11-18T14:48:55;18.80;;;7.40;;
45368;SDS011;51342;55.250;37.668;2023-11-18T14:51:27;15.50;;;7.83;;
45368;SDS011;51342;55.250;37.668;2023-11-18T14:53:58;14.40;;;6.23;;
45368;SDS011;51342;55.250;37.668;2023-11-18T14:56:30;14.23;;;6.57;;
45368;SDS011;51342;55.250;37.668;2023-11-18T14:59:01;13.60;;;7.63;;
45368;SDS011;51342;55.250;37.668;2023-11-18T15:01:35;16.33;;;8.87;;
45368;SDS011;51342;55.250;37.668;2023-11-18T15:04:08;14.00;;;7.80;;
45368;SDS011;51342;55.250;37.668;2023-11-18T15:06:40;21.00;;;10.57;;
45368;SDS011;51342;55.250;37.668;2023-11-18T15:09:12;29.47;;;17.00;;
45368;SDS011;51342;55.250;37.668;2023-11-18T15:11:45;23.13;;;12.97;;
45368;SDS011;51342;55.250;37.668;2023-11-18T15:14:17;23.43;;;11.63;;
45368;SDS011;51342;55.250;37.668;2023-11-18T15:16:48;18.97;;;9.90;;
45368;SDS011;51342;55.250;37.668;2023-11-18T15:19:20;15.20;;;6.63;;
45368;SDS011;51342;55.250;37.668;2023-11-18T15:21:51;10.77;;;5.47;;
45368;SDS011;51342;55.250;37.668;2023-11-18T15:24:23;10.03;;;5.17;;
45368;SDS011;51342;55.250;37.668;2023-11-18T15:26:55;14.50;;;6.03;;
45368;SDS011;51342;55.250;37.668;2023-11-18T15:29:26;9.73;;;4.90;;
45368;SDS011;51342;55.250;37.668;2023-11-18T15:32:04;11.80;;;5.60;;
45368;SDS011;51342;55.250;37.668;2023-11-18T15:34:36;10.73;;;6.00;;